sensor_id;sensor_type;location;lat;lon;timestamp;pressure;altitude;pressure_sealevel;temperature;humidity
64354;BME280;50681;53.334;-6.536;2023-03-16T00:00:24;99244.34;;;14.26;100.00
64354;BME280;50681;53.334;-6.536;2023-03-16T00:02:52;99234.06;;;14.20;100.00
64354;BME280;50681;53.334;-6.536;2023-03-16T00:05:19;99238.94;;;14.14;100.00
64354;BME280;50681;53.334;-6.536;2023-03-16T00:07:44;99242.81;;;14.13;100.00
64354;BME280;50681;53.334;-6.536;2023-03-16T00:10:17;99230.81;;;14.14;100.00
64354;BME280;50681;53.334;-6.536;2023-03-16T00:12:43;99261.56;;;14.18;100.00
64354;BME280;50681;53.334;-6.536;2023-03-16T00:15:10;99246.84;;;14.19;100.00
64354;BME280;50681;53.334;-6.536;2023-03-16T00:17:35;99240.41;;;14.11;100.00
64354;BME280;50681;53.334;-6.536;2023-03-16T00:20:02;99242.09;;;14.16;100.00
64354;BME280;50681;53.334;-6.536;2023-03-16T00:22:33;99227.91;;;14.07;100.00
64354;BME280;50681;53.334;-6.536;2023-03-16T00:25:02;99206.63;;;14.09;100.00
64354;BME280;50681;53.334;-6.536;2023-03-16T00:27:28;99209.72;;;14.23;100.00
64354;BME280;50681;53.334;-6.536;2023-03-16T00:29:54;99233.50;;;14.43;100.00
64354;BME280;50681;53.334;-6.536;2023-03-16T00:32:25;99232.28;;;14.56;100.00
64354;BME280;50681;53.334;-6.536;2023-03-16T00:34:51;99216.59;;;14.05;100.00
64354;BME280;50681;53.334;-6.536;2023-03-16T00:37:18;99227.97;;;14.39;100.00
64354;BME280;50681;53.334;-6.536;2023-03-16T00:39:45;99243.91;;;14.40;100.00
64354;BME280;50681;53.334;-6.536;2023-03-16T00:42:11;99241.31;;;14.44;100.00
64354;BME280;50681;53.334;-6.536;2023-03-16T00:44:38;99228.13;;;14.02;100.00
64354;BME280;50681;53.334;-6.536;2023-03-16T00:47:05;99246.88;;;14.35;100.00
64354;BME280;50681;53.334;-6.536;2023-03-16T00:49:31;99199.38;;;14.13;100.00
64354;BME280;50681;53.334;-6.536;2023-03-16T00:52:05;99227.53;;;14.37;100.00
64354;BME280;50681;53.334;-6.536;2023-03-16T00:54:31;99192.00;;;14.14;100.00
64354;BME280;50681;53.334;-6.536;2023-03-16T00:57:01;99223.50;;;14.47;100.00
64354;BME280;50681;53.334;-6.536;2023-03-16T00:59:27;99227.81;;;14.48;100.00
64354;BME280;50681;53.334;-6.536;2023-03-16T01:01:54;99223.69;;;14.54;100.00
64354;BME280;50681;53.334;-6.536;2023-03-16T01:04:21;99211.50;;;14.48;100.00
64354;BME280;50681;53.334;-6.536;2023-03-16T01:06:48;99211.88;;;14.46;100.00
64354;BME280;50681;53.334;-6.536;2023-03-16T01:09:13;99213.28;;;14.40;100.00
64354;BME280;50681;53.334;-6.536;2023-03-16T01:11:40;99184.44;;;14.35;100.00
64354;BME280;50681;53.334;-6.536;2023-03-16T01:14:08;99185.75;;;14.25;100.00
64354;BME280;50681;53.334;-6.536;2023-03-16T01:16:33;99185.75;;;14.25;100.00
64354;BME280;50681;53.334;-6.536;2023-03-16T01:18:59;99185.94;;;14.33;100.00
64354;BME280;50681;53.334;-6.536;2023-03-16T01:21:25;99181.72;;;14.35;100.00
64354;BME280;50681;53.334;-6.536;2023-03-16T01:23:51;99183.16;;;14.45;100.00
64354;BME280;50681;53.334;-6.536;2023-03-16T01:26:18;99193.56;;;14.59;100.00
64354;BME280;50681;53.334;-6.536;2023-03-16T01:28:43;99184.28;;;14.44;100.00
64354;BME280;50681;53.334;-6.536;2023-03-16T01:31:11;99183.91;;;14.46;100.00
64354;BME280;50681;53.334;-6.536;2023-03-16T01:33:43;99158.66;;;14.13;100.00
64354;BME280;50681;53.334;-6.536;2023-03-16T01:36:17;99179.44;;;14.37;100.00
64354;BME280;50681;53.334;-6.536;2023-03-16T01:38:44;99178.91;;;14.32;100.00
64354;BME280;50681;53.334;-6.536;2023-03-16T01:41:10;99162.50;;;14.12;100.00
64354;BME280;50681;53.334;-6.536;2023-03-16T01:43:37;99147.56;;;14.18;100.00
64354;BME280;50681;53.334;-6.536;2023-03-16T01:48:41;99161.41;;;14.45;100.00
64354;BME280;50681;53.334;-6.536;2023-03-16T01:53:48;99149.94;;;14.36;100.00
64354;BME280;50681;53.334;-6.536;2023-03-16T01:56:21;99134.53;;;14.40;100.00
64354;BME280;50681;53.334;-6.536;2023-03-16T01:58:48;99134.84;;;14.22;100.00
64354;BME280;50681;53.334;-6.536;2023-03-16T02:01:16;99140.22;;;14.35;100.00
64354;BME280;50681;53.334;-6.536;2023-03-16T02:03:42;99132.22;;;14.10;100.00
64354;BME280;50681;53.334;-6.536;2023-03-16T02:06:15;99128.72;;;14.25;100.00
64354;BME280;50681;53.334;-6.536;2023-03-16T02:08:44;99120.59;;;14.25;100.00
64354;BME280;50681;53.334;-6.536;2023-03-16T02:11:11;99136.25;;;14.32;100.00
64354;BME280;50681;53.334;-6.536;2023-03-16T02:13:43;99131.09;;;14.43;100.00
64354;BME280;50681;53.334;-6.536;2023-03-16T02:16:24;99111.56;;;14.69;100.00
64354;BME280;50681;53.334;-6.536;2023-03-16T02:18:50;99116.03;;;14.46;100.00
64354;BME280;50681;53.334;-6.536;2023-03-16T02:23:45;99086.16;;;14.30;100.00
64354;BME280;50681;53.334;-6.536;2023-03-16T02:31:43;99079.78;;;14.38;100.00
64354;BME280;50681;53.334;-6.536;2023-03-16T02:34:09;99087.75;;;14.31;100.00
64354;BME280;50681;53.334;-6.536;2023-03-16T02:36:37;99085.56;;;14.52;100.00
64354;BME280;50681;53.334;-6.536;2023-03-16T02:39:03;99066.03;;;14.31;100.00
64354;BME280;50681;53.334;-6.536;2023-03-16T02:41:29;99071.72;;;14.58;100.00
64354;BME280;50681;53.334;-6.536;2023-03-16T02:46:31;99062.84;;;14.61;100.00
64354;BME280;50681;53.334;-6.536;2023-03-16T02:51:35;99058.72;;;14.51;100.00
64354;BME280;50681;53.334;-6.536;2023-03-16T02:54:00;99031.97;;;14.17;100.00
64354;BME280;50681;53.334;-6.536;2023-03-16T02:56:26;99039.16;;;14.25;100.00
64354;BME280;50681;53.334;-6.536;2023-03-16T02:58:51;99047.25;;;14.41;100.00
64354;BME280;50681;53.334;-6.536;2023-03-16T03:01:17;99049.47;;;14.36;100.00
64354;BME280;50681;53.334;-6.536;2023-03-16T03:03:42;99035.03;;;14.32;100.00
64354;BME280;50681;53.334;-6.536;2023-03-16T03:06:08;99035.66;;;14.09;100.00
64354;BME280;50681;53.334;-6.536;2023-03-16T03:08:33;99020.56;;;14.28;100.00
64354;BME280;50681;53.334;-6.536;2023-03-16T03:10:59;99029.06;;;14.42;100.00
64354;BME280;50681;53.334;-6.536;2023-03-16T03:13:27;99033.41;;;14.47;100.00
64354;BME280;50681;53.334;-6.536;2023-03-16T03:15:52;99027.91;;;14.43;100.00
64354;BME280;50681;53.334;-6.536;2023-03-16T03:18:18;99024.91;;;14.80;100.00
64354;BME280;50681;53.334;-6.536;2023-03-16T03:20:43;99006.75;;;14.84;100.00
64354;BME280;50681;53.334;-6.536;2023-03-16T03:23:09;99028.75;;;14.79;100.00
64354;BME280;50681;53.334;-6.536;2023-03-16T03:25:34;99011.38;;;15.04;100.00
64354;BME280;50681;53.334;-6.536;2023-03-16T03:28:02;99020.06;;;14.74;100.00
64354;BME280;50681;53.334;-6.536;2023-03-16T03:30:29;98985.19;;;14.40;100.00
64354;BME280;50681;53.334;-6.536;2023-03-16T03:32:55;99008.38;;;14.37;100.00
64354;BME280;50681;53.334;-6.536;2023-03-16T03:35:21;99009.69;;;14.44;100.00
64354;BME280;50681;53.334;-6.536;2023-03-16T03:37:46;98979.31;;;14.22;100.00
64354;BME280;50681;53.334;-6.536;2023-03-16T03:40:14;99000.22;;;14.53;100.00
64354;BME280;50681;53.334;-6.536;2023-03-16T03:42:41;98996.66;;;14.85;100.00
64354;BME280;50681;53.334;-6.536;2023-03-16T03:45:08;99016.84;;;14.68;100.00
64354;BME280;50681;53.334;-6.536;2023-03-16T03:47:36;99008.44;;;14.73;100.00
64354;BME280;50681;53.334;-6.536;2023-03-16T03:50:02;98984.81;;;14.41;100.00
64354;BME280;50681;53.334;-6.536;2023-03-16T03:52:32;98998.28;;;14.70;100.00
64354;BME280;50681;53.334;-6.536;2023-03-16T03:54:58;99006.25;;;14.47;100.00
64354;BME280;50681;53.334;-6.536;2023-03-16T03:57:26;99008.38;;;14.53;100.00
64354;BME280;50681;53.334;-6.536;2023-03-16T03:59:52;98989.34;;;14.53;100.00
64354;BME280;50681;53.334;-6.536;2023-03-16T04:02:17;98975.78;;;14.37;100.00
64354;BME280;50681;53.334;-6.536;2023-03-16T04:04:43;98972.75;;;14.75;100.00
64354;BME280;50681;53.334;-6.536;2023-03-16T04:07:09;98963.88;;;14.42;100.00
64354;BME280;50681;53.334;-6.536;2023-03-16T04:09:35;98953.56;;;14.32;100.00
64354;BME280;50681;53.334;-6.536;2023-03-16T04:12:02;98933.50;;;14.36;100.00
64354;BME280;50681;53.334;-6.536;2023-03-16T04:14:31;98956.25;;;14.48;100.00
64354;BME280;50681;53.334;-6.536;2023-03-16T04:16:57;98962.09;;;14.50;100.00
64354;BME280;50681;53.334;-6.536;2023-03-16T04:19:23;98947.47;;;14.54;100.00
64354;BME280;50681;53.334;-6.536;2023-03-16T04:21:50;98919.38;;;14.11;100.00
64354;BME280;50681;53.334;-6.536;2023-03-16T04:24:16;98942.00;;;14.35;100.00
64354;BME280;50681;53.334;-6.536;2023-03-16T04:26:45;98939.03;;;14.24;100.00
64354;BME280;50681;53.334;-6.536;2023-03-16T04:29:12;98961.88;;;14.39;100.00
64354;BME280;50681;53.334;-6.536;2023-03-16T04:31:39;98955.06;;;14.29;100.00
64354;BME280;50681;53.334;-6.536;2023-03-16T04:34:05;98958.78;;;14.40;100.00
64354;BME280;50681;53.334;-6.536;2023-03-16T04:36:30;98966.22;;;14.60;100.00
64354;BME280;50681;53.334;-6.536;2023-03-16T04:38:57;98974.94;;;14.69;100.00
64354;BME280;50681;53.334;-6.536;2023-03-16T04:41:22;98969.69;;;14.76;100.00
64354;BME280;50681;53.334;-6.536;2023-03-16T04:43:48;98965.56;;;14.82;100.00
64354;BME280;50681;53.334;-6.536;2023-03-16T04:46:13;98945.91;;;14.53;100.00
64354;BME280;50681;53.334;-6.536;2023-03-16T04:48:39;98960.25;;;14.90;100.00
64354;BME280;50681;53.334;-6.536;2023-03-16T04:51:05;98936.38;;;14.79;100.00
64354;BME280;50681;53.334;-6.536;2023-03-16T04:53:30;98943.94;;;14.70;100.00
64354;BME280;50681;53.334;-6.536;2023-03-16T04:55:57;98936.47;;;14.67;100.00
64354;BME280;50681;53.334;-6.536;2023-03-16T04:58:23;98928.34;;;14.67;100.00
64354;BME280;50681;53.334;-6.536;2023-03-16T05:00:51;98952.53;;;14.92;100.00
64354;BME280;50681;53.334;-6.536;2023-03-16T05:03:19;98951.63;;;14.68;100.00
64354;BME280;50681;53.334;-6.536;2023-03-16T05:05:46;98945.06;;;14.69;100.00
64354;BME280;50681;53.334;-6.536;2023-03-16T05:08:11;98942.34;;;14.69;100.00
64354;BME280;50681;53.334;-6.536;2023-03-16T05:10:37;98939.28;;;14.70;100.00
64354;BME280;50681;53.334;-6.536;2023-03-16T05:13:04;98957.59;;;14.74;100.00
64354;BME280;50681;53.334;-6.536;2023-03-16T05:15:30;98959.00;;;14.67;100.00
64354;BME280;50681;53.334;-6.536;2023-03-16T05:17:55;98951.31;;;14.69;100.00
64354;BME280;50681;53.334;-6.536;2023-03-16T05:20:22;98956.22;;;14.64;100.00
64354;BME280;50681;53.334;-6.536;2023-03-16T05:22:47;98978.34;;;14.82;100.00
64354;BME280;50681;53.334;-6.536;2023-03-16T05:25:14;98975.44;;;14.91;100.00
64354;BME280;50681;53.334;-6.536;2023-03-16T05:27:41;98969.69;;;14.96;100.00
64354;BME280;50681;53.334;-6.536;2023-03-16T05:30:09;98953.94;;;14.66;100.00
64354;BME280;50681;53.334;-6.536;2023-03-16T05:32:34;98963.84;;;14.94;100.00
64354;BME280;50681;53.334;-6.536;2023-03-16T05:35:00;98946.44;;;14.79;100.00
64354;BME280;50681;53.334;-6.536;2023-03-16T05:37:27;98940.16;;;14.94;100.00
64354;BME280;50681;53.334;-6.536;2023-03-16T05:39:53;98956.47;;;14.94;100.00
64354;BME280;50681;53.334;-6.536;2023-03-16T05:42:18;98957.25;;;14.95;100.00
64354;BME280;50681;53.334;-6.536;2023-03-16T05:44:44;98946.97;;;15.04;100.00
64354;BME280;50681;53.334;-6.536;2023-03-16T05:47:10;98942.81;;;14.91;100.00
64354;BME280;50681;53.334;-6.536;2023-03-16T05:49:35;98937.53;;;14.98;100.00
64354;BME280;50681;53.334;-6.536;2023-03-16T05:52:01;98936.16;;;14.88;100.00
64354;BME280;50681;53.334;-6.536;2023-03-16T05:54:26;98932.91;;;14.63;100.00
64354;BME280;50681;53.334;-6.536;2023-03-16T05:56:52;98933.22;;;14.77;100.00
64354;BME280;50681;53.334;-6.536;2023-03-16T05:59:18;98939.94;;;15.03;100.00
64354;BME280;50681;53.334;-6.536;2023-03-16T06:01:44;98932.47;;;14.61;100.00
64354;BME280;50681;53.334;-6.536;2023-03-16T06:04:09;98911.34;;;14.70;100.00
64354;BME280;50681;53.334;-6.536;2023-03-16T06:06:35;98905.34;;;14.80;100.00
64354;BME280;50681;53.334;-6.536;2023-03-16T06:09:01;98901.94;;;14.67;100.00
64354;BME280;50681;53.334;-6.536;2023-03-16T06:11:26;98891.06;;;14.67;100.00
64354;BME280;50681;53.334;-6.536;2023-03-16T06:13:52;98887.91;;;14.46;100.00
64354;BME280;50681;53.334;-6.536;2023-03-16T06:16:17;98892.56;;;14.45;100.00
64354;BME280;50681;53.334;-6.536;2023-03-16T06:18:43;98881.59;;;14.58;100.00
64354;BME280;50681;53.334;-6.536;2023-03-16T06:21:08;98865.75;;;14.44;100.00
64354;BME280;50681;53.334;-6.536;2023-03-16T06:23:34;98849.69;;;14.35;100.00
64354;BME280;50681;53.334;-6.536;2023-03-16T06:25:59;98863.84;;;14.44;100.00
64354;BME280;50681;53.334;-6.536;2023-03-16T06:28:25;98837.69;;;14.55;100.00
64354;BME280;50681;53.334;-6.536;2023-03-16T06:30:55;98854.03;;;14.39;100.00
64354;BME280;50681;53.334;-6.536;2023-03-16T06:33:21;98833.84;;;14.37;100.00
64354;BME280;50681;53.334;-6.536;2023-03-16T06:35:47;98852.13;;;14.40;100.00
64354;BME280;50681;53.334;-6.536;2023-03-16T06:38:14;98874.56;;;14.37;100.00
64354;BME280;50681;53.334;-6.536;2023-03-16T06:40:40;98860.28;;;14.40;100.00
64354;BME280;50681;53.334;-6.536;2023-03-16T06:43:06;98887.16;;;14.65;100.00
64354;BME280;50681;53.334;-6.536;2023-03-16T06:45:31;98877.31;;;14.76;100.00
64354;BME280;50681;53.334;-6.536;2023-03-16T06:47:57;98878.28;;;14.48;100.00
64354;BME280;50681;53.334;-6.536;2023-03-16T06:50:22;98887.28;;;14.52;100.00
64354;BME280;50681;53.334;-6.536;2023-03-16T06:52:48;98897.31;;;14.48;100.00
64354;BME280;50681;53.334;-6.536;2023-03-16T06:55:13;98900.44;;;14.15;100.00
64354;BME280;50681;53.334;-6.536;2023-03-16T06:57:39;98881.75;;;14.29;100.00
64354;BME280;50681;53.334;-6.536;2023-03-16T07:00:07;98884.72;;;14.60;100.00
64354;BME280;50681;53.334;-6.536;2023-03-16T07:02:33;98873.00;;;14.36;100.00
64354;BME280;50681;53.334;-6.536;2023-03-16T07:05:00;98877.63;;;14.35;100.00
64354;BME280;50681;53.334;-6.536;2023-03-16T07:07:26;98893.94;;;14.55;100.00
64354;BME280;50681;53.334;-6.536;2023-03-16T07:09:51;98868.75;;;14.38;100.00
64354;BME280;50681;53.334;-6.536;2023-03-16T07:12:17;98881.69;;;14.25;100.00
64354;BME280;50681;53.334;-6.536;2023-03-16T07:14:43;98864.69;;;14.29;100.00
64354;BME280;50681;53.334;-6.536;2023-03-16T07:17:08;98882.56;;;14.49;100.00
64354;BME280;50681;53.334;-6.536;2023-03-16T07:19:34;98886.41;;;14.29;100.00
64354;BME280;50681;53.334;-6.536;2023-03-16T07:21:59;98859.53;;;14.23;100.00
64354;BME280;50681;53.334;-6.536;2023-03-16T07:24:27;98870.16;;;14.68;100.00
64354;BME280;50681;53.334;-6.536;2023-03-16T07:26:52;98888.16;;;14.57;100.00
64354;BME280;50681;53.334;-6.536;2023-03-16T07:29:18;98881.72;;;14.45;100.00
64354;BME280;50681;53.334;-6.536;2023-03-16T07:31:43;98873.00;;;14.55;100.00
64354;BME280;50681;53.334;-6.536;2023-03-16T07:34:09;98893.44;;;14.69;100.00
64354;BME280;50681;53.334;-6.536;2023-03-16T07:36:34;98889.16;;;14.48;100.00
64354;BME280;50681;53.334;-6.536;2023-03-16T07:39:00;98872.47;;;14.30;100.00
64354;BME280;50681;53.334;-6.536;2023-03-16T07:41:25;98862.84;;;14.52;100.00
64354;BME280;50681;53.334;-6.536;2023-03-16T07:43:51;98869.25;;;14.24;100.00
64354;BME280;50681;53.334;-6.536;2023-03-16T07:46:17;98892.44;;;14.38;100.00
64354;BME280;50681;53.334;-6.536;2023-03-16T07:48:43;98867.53;;;14.16;100.00
64354;BME280;50681;53.334;-6.536;2023-03-16T07:51:10;98890.06;;;14.36;100.00
64354;BME280;50681;53.334;-6.536;2023-03-16T07:53:37;98879.38;;;14.08;100.00
64354;BME280;50681;53.334;-6.536;2023-03-16T07:56:14;98876.31;;;14.29;100.00
64354;BME280;50681;53.334;-6.536;2023-03-16T07:58:41;98893.56;;;14.37;100.00
64354;BME280;50681;53.334;-6.536;2023-03-16T08:01:07;98895.44;;;14.52;100.00
64354;BME280;50681;53.334;-6.536;2023-03-16T08:03:35;98888.28;;;14.44;100.00
64354;BME280;50681;53.334;-6.536;2023-03-16T08:06:00;98896.16;;;14.69;100.00
64354;BME280;50681;53.334;-6.536;2023-03-16T08:08:25;98897.06;;;14.73;100.00
64354;BME280;50681;53.334;-6.536;2023-03-16T08:10:51;98887.38;;;14.95;100.00
64354;BME280;50681;53.334;-6.536;2023-03-16T08:13:17;98904.19;;;15.01;100.00
64354;BME280;50681;53.334;-6.536;2023-03-16T08:15:47;98900.25;;;15.41;100.00
64354;BME280;50681;53.334;-6.536;2023-03-16T08:18:13;98894.94;;;15.06;100.00
64354;BME280;50681;53.334;-6.536;2023-03-16T08:20:39;98887.59;;;15.29;100.00
64354;BME280;50681;53.334;-6.536;2023-03-16T08:23:04;98900.22;;;15.65;100.00
64354;BME280;50681;53.334;-6.536;2023-03-16T08:25:30;98878.34;;;15.57;100.00
64354;BME280;50681;53.334;-6.536;2023-03-16T08:27:55;98904.25;;;15.48;100.00
64354;BME280;50681;53.334;-6.536;2023-03-16T08:30:22;98887.56;;;15.26;100.00
64354;BME280;50681;53.334;-6.536;2023-03-16T08:32:48;98887.78;;;15.40;100.00
64354;BME280;50681;53.334;-6.536;2023-03-16T08:35:15;98908.28;;;15.57;100.00
64354;BME280;50681;53.334;-6.536;2023-03-16T08:37:41;98903.88;;;15.72;100.00
64354;BME280;50681;53.334;-6.536;2023-03-16T08:40:08;98892.50;;;15.67;100.00
64354;BME280;50681;53.334;-6.536;2023-03-16T08:42:35;98900.66;;;15.90;100.00
64354;BME280;50681;53.334;-6.536;2023-03-16T08:45:06;98909.94;;;16.12;100.00
64354;BME280;50681;53.334;-6.536;2023-03-16T08:47:36;98907.81;;;16.29;100.00
64354;BME280;50681;53.334;-6.536;2023-03-16T08:50:03;98891.81;;;16.24;100.00
64354;BME280;50681;53.334;-6.536;2023-03-16T08:52:30;98905.97;;;16.37;100.00
64354;BME280;50681;53.334;-6.536;2023-03-16T08:54:56;98899.78;;;16.40;100.00
64354;BME280;50681;53.334;-6.536;2023-03-16T08:57:22;98898.47;;;16.57;100.00
64354;BME280;50681;53.334;-6.536;2023-03-16T08:59:47;98898.22;;;16.69;100.00
64354;BME280;50681;53.334;-6.536;2023-03-16T09:02:13;98888.16;;;16.43;100.00
64354;BME280;50681;53.334;-6.536;2023-03-16T09:04:39;98907.50;;;16.65;100.00
64354;BME280;50681;53.334;-6.536;2023-03-16T09:07:05;98867.38;;;16.61;100.00
64354;BME280;50681;53.334;-6.536;2023-03-16T09:09:30;98902.72;;;16.88;100.00
64354;BME280;50681;53.334;-6.536;2023-03-16T09:11:56;98882.88;;;16.92;100.00
64354;BME280;50681;53.334;-6.536;2023-03-16T09:18:55;98886.03;;;16.59;100.00
64354;BME280;50681;53.334;-6.536;2023-03-16T09:21:34;98896.94;;;16.94;100.00
64354;BME280;50681;53.334;-6.536;2023-03-16T09:24:07;98882.13;;;16.95;100.00
64354;BME280;50681;53.334;-6.536;2023-03-16T09:26:34;98890.16;;;16.80;100.00
64354;BME280;50681;53.334;-6.536;2023-03-16T09:29:00;98903.03;;;16.83;100.00
64354;BME280;50681;53.334;-6.536;2023-03-16T09:31:33;98899.25;;;16.92;100.00
64354;BME280;50681;53.334;-6.536;2023-03-16T09:33:58;98909.38;;;16.91;100.00
64354;BME280;50681;53.334;-6.536;2023-03-16T09:36:26;98904.28;;;16.89;100.00
64354;BME280;50681;53.334;-6.536;2023-03-16T09:38:55;98912.84;;;17.22;100.00
64354;BME280;50681;53.334;-6.536;2023-03-16T09:44:08;98917.97;;;17.72;100.00
64354;BME280;50681;53.334;-6.536;2023-03-16T09:46:42;98900.31;;;17.59;100.00
64354;BME280;50681;53.334;-6.536;2023-03-16T09:49:11;98929.50;;;17.55;100.00
64354;BME280;50681;53.334;-6.536;2023-03-16T09:51:50;98916.44;;;17.75;100.00
64354;BME280;50681;53.334;-6.536;2023-03-16T09:54:25;98902.97;;;17.52;100.00
64354;BME280;50681;53.334;-6.536;2023-03-16T09:56:54;98921.19;;;17.40;100.00
64354;BME280;50681;53.334;-6.536;2023-03-16T09:59:20;98933.50;;;17.23;100.00
64354;BME280;50681;53.334;-6.536;2023-03-16T10:02:15;98945.88;;;17.55;100.00
64354;BME280;50681;53.334;-6.536;2023-03-16T10:05:22;98932.59;;;17.49;100.00
64354;BME280;50681;53.334;-6.536;2023-03-16T10:13:15;98895.53;;;17.48;100.00
64354;BME280;50681;53.334;-6.536;2023-03-16T10:15:52;98905.38;;;17.15;100.00
64354;BME280;50681;53.334;-6.536;2023-03-16T10:18:31;98914.69;;;17.52;100.00
64354;BME280;50681;53.334;-6.536;2023-03-16T10:20:59;98896.81;;;17.58;100.00
64354;BME280;50681;53.334;-6.536;2023-03-16T10:23:33;98911.09;;;17.93;100.00
64354;BME280;50681;53.334;-6.536;2023-03-16T10:26:08;98909.41;;;17.74;100.00
64354;BME280;50681;53.334;-6.536;2023-03-16T10:28:37;98914.72;;;18.04;100.00
64354;BME280;50681;53.334;-6.536;2023-03-16T10:31:03;98899.34;;;17.85;100.00
64354;BME280;50681;53.334;-6.536;2023-03-16T10:33:33;98889.84;;;17.68;100.00
64354;BME280;50681;53.334;-6.536;2023-03-16T10:36:11;98899.94;;;18.09;100.00
64354;BME280;50681;53.334;-6.536;2023-03-16T10:38:47;98896.09;;;18.17;100.00
64354;BME280;50681;53.334;-6.536;2023-03-16T10:43:53;98905.03;;;18.18;100.00
64354;BME280;50681;53.334;-6.536;2023-03-16T10:46:23;98885.16;;;18.21;100.00
64354;BME280;50681;53.334;-6.536;2023-03-16T10:48:59;98926.81;;;18.74;100.00
64354;BME280;50681;53.334;-6.536;2023-03-16T10:51:33;98920.97;;;18.83;100.00
64354;BME280;50681;53.334;-6.536;2023-03-16T10:54:17;98921.44;;;18.99;100.00
64354;BME280;50681;53.334;-6.536;2023-03-16T10:56:45;98926.84;;;18.92;100.00
64354;BME280;50681;53.334;-6.536;2023-03-16T10:59:26;98907.69;;;18.81;100.00
64354;BME280;50681;53.334;-6.536;2023-03-16T11:01:52;98891.91;;;18.42;100.00
64354;BME280;50681;53.334;-6.536;2023-03-16T11:04:18;98924.81;;;18.63;100.00
64354;BME280;50681;53.334;-6.536;2023-03-16T11:06:55;98922.59;;;18.98;100.00
64354;BME280;50681;53.334;-6.536;2023-03-16T11:09:32;98905.31;;;18.72;100.00
64354;BME280;50681;53.334;-6.536;2023-03-16T11:11:58;98909.16;;;18.60;100.00
64354;BME280;50681;53.334;-6.536;2023-03-16T11:14:27;98922.00;;;18.49;100.00
64354;BME280;50681;53.334;-6.536;2023-03-16T11:20:52;98914.72;;;18.82;100.00
64354;BME280;50681;53.334;-6.536;2023-03-16T11:23:34;98890.47;;;18.70;100.00
64354;BME280;50681;53.334;-6.536;2023-03-16T11:26:12;98909.69;;;18.91;100.00
64354;BME280;50681;53.334;-6.536;2023-03-16T11:28:47;98902.69;;;18.98;100.00
64354;BME280;50681;53.334;-6.536;2023-03-16T11:34:30;98892.59;;;19.23;100.00
64354;BME280;50681;53.334;-6.536;2023-03-16T11:37:09;98900.78;;;19.34;100.00
64354;BME280;50681;53.334;-6.536;2023-03-16T11:42:45;98910.19;;;19.30;100.00
64354;BME280;50681;53.334;-6.536;2023-03-16T11:51:00;98898.47;;;19.54;100.00
64354;BME280;50681;53.334;-6.536;2023-03-16T11:59:17;98905.50;;;19.66;100.00
64354;BME280;50681;53.334;-6.536;2023-03-16T12:01:57;98889.09;;;19.63;100.00
64354;BME280;50681;53.334;-6.536;2023-03-16T12:10:11;98899.66;;;19.82;100.00
64354;BME280;50681;53.334;-6.536;2023-03-16T12:13:00;98889.06;;;20.10;100.00
64354;BME280;50681;53.334;-6.536;2023-03-16T12:18:27;98887.13;;;20.03;100.00
64354;BME280;50681;53.334;-6.536;2023-03-16T12:20:57;98878.38;;;20.48;100.00
64354;BME280;50681;53.334;-6.536;2023-03-16T12:23:31;98905.84;;;20.30;100.00
64354;BME280;50681;53.334;-6.536;2023-03-16T12:26:02;98882.03;;;20.12;100.00
64354;BME280;50681;53.334;-6.536;2023-03-16T12:28:29;98907.75;;;20.44;100.00
64354;BME280;50681;53.334;-6.536;2023-03-16T12:39:07;98874.00;;;20.65;100.00
64354;BME280;50681;53.334;-6.536;2023-03-16T12:44:44;98888.88;;;20.79;100.00
64354;BME280;50681;53.334;-6.536;2023-03-16T12:50:03;98892.41;;;20.68;100.00
64354;BME280;50681;53.334;-6.536;2023-03-16T12:52:39;98884.53;;;20.74;100.00
64354;BME280;50681;53.334;-6.536;2023-03-16T12:55:11;98878.06;;;21.17;100.00
64354;BME280;50681;53.334;-6.536;2023-03-16T12:57:40;98890.97;;;21.20;100.00
64354;BME280;50681;53.334;-6.536;2023-03-16T13:00:07;98881.53;;;21.25;100.00
64354;BME280;50681;53.334;-6.536;2023-03-16T13:02:36;98892.69;;;20.99;100.00
64354;BME280;50681;53.334;-6.536;2023-03-16T13:05:14;98893.47;;;20.96;100.00
64354;BME280;50681;53.334;-6.536;2023-03-16T13:07:48;98894.28;;;20.93;100.00
64354;BME280;50681;53.334;-6.536;2023-03-16T13:10:16;98879.47;;;20.73;100.00
64354;BME280;50681;53.334;-6.536;2023-03-16T13:12:45;98897.59;;;20.34;100.00
64354;BME280;50681;53.334;-6.536;2023-03-16T13:17:44;98898.38;;;20.41;100.00
64354;BME280;50681;53.334;-6.536;2023-03-16T13:22:45;98906.94;;;20.58;100.00
64354;BME280;50681;53.334;-6.536;2023-03-16T13:25:42;98881.88;;;20.56;100.00
64354;BME280;50681;53.334;-6.536;2023-03-16T13:28:12;98895.94;;;20.65;100.00
64354;BME280;50681;53.334;-6.536;2023-03-16T13:30:44;98902.22;;;20.62;100.00
64354;BME280;50681;53.334;-6.536;2023-03-16T13:33:22;98882.72;;;20.38;100.00
64354;BME280;50681;53.334;-6.536;2023-03-16T13:35:50;98897.97;;;20.47;100.00
64354;BME280;50681;53.334;-6.536;2023-03-16T13:38:18;98889.19;;;20.92;100.00
64354;BME280;50681;53.334;-6.536;2023-03-16T13:40:50;98889.63;;;20.76;100.00
64354;BME280;50681;53.334;-6.536;2023-03-16T13:43:27;98886.50;;;20.81;100.00
64354;BME280;50681;53.334;-6.536;2023-03-16T13:45:53;98881.41;;;20.83;100.00
64354;BME280;50681;53.334;-6.536;2023-03-16T13:48:19;98866.13;;;20.75;100.00
64354;BME280;50681;53.334;-6.536;2023-03-16T13:50:50;98886.16;;;21.32;100.00
64354;BME280;50681;53.334;-6.536;2023-03-16T13:53:23;98890.16;;;21.23;100.00
64354;BME280;50681;53.334;-6.536;2023-03-16T13:55:50;98891.22;;;21.37;100.00
64354;BME280;50681;53.334;-6.536;2023-03-16T13:58:31;98890.69;;;21.56;100.00
64354;BME280;50681;53.334;-6.536;2023-03-16T14:01:00;98877.50;;;21.37;100.00
64354;BME280;50681;53.334;-6.536;2023-03-16T14:03:36;98879.75;;;21.53;100.00
64354;BME280;50681;53.334;-6.536;2023-03-16T14:06:06;98897.75;;;21.05;100.00
64354;BME280;50681;53.334;-6.536;2023-03-16T14:08:32;98889.56;;;20.97;100.00